createdAt,value
2023-03-01T00:00:26.556Z,-2.39
2023-03-01T00:03:29.754Z,-2.33
2023-03-01T00:06:34.536Z,-2.36
2023-03-01T00:09:38.729Z,-2.67
2023-03-01T00:12:41.844Z,-2.91
2023-03-01T00:15:44.949Z,-2.91
2023-03-01T00:18:48.320Z,-2.47
2023-03-01T00:21:52.839Z,-2.73
2023-03-01T00:24:55.976Z,-2.87
2023-03-01T00:27:59.156Z,-2.39
2023-03-01T00:31:05.692Z,-2.64
2023-03-01T00:34:09.096Z,-2.41
2023-03-01T00:37:14.039Z,-3.32
2023-03-01T00:40:17.685Z,-2.78
2023-03-01T00:43:21.002Z,-2.65
2023-03-01T00:46:26.671Z,-2.79
2023-03-01T00:49:30.066Z,-2.78
2023-03-01T00:52:34.573Z,-3.19
2023-03-01T00:55:38.622Z,-2.67
2023-03-01T00:58:43.665Z,-2.70
2023-03-01T01:01:46.842Z,-2.82
2023-03-01T01:04:50.079Z,-2.79
2023-03-01T01:07:54.940Z,-3.23
2023-03-01T01:10:58.087Z,-3.09
2023-03-01T01:14:01.469Z,-2.96
2023-03-01T01:17:06.145Z,-2.87
2023-03-01T01:20:10.742Z,-2.76
2023-03-01T01:23:15.240Z,-2.63
2023-03-01T01:26:20.728Z,-2.64
2023-03-01T01:29:24.073Z,-2.41
2023-03-01T01:32:27.510Z,-2.54
2023-03-01T01:35:30.717Z,-2.61
2023-03-01T01:38:36.040Z,-2.94
2023-03-01T01:41:39.249Z,-3.06
2023-03-01T01:44:42.491Z,-2.66
2023-03-01T01:47:49.561Z,-2.57
2023-03-01T01:50:58.089Z,-2.38
2023-03-01T01:54:03.414Z,-2.90
2023-03-01T01:57:11.373Z,-2.78
2023-03-01T02:00:18.013Z,-3.31
2023-03-01T02:03:30.403Z,-3.12
2023-03-01T02:06:38.451Z,-3.41
2023-03-01T02:09:44.004Z,-3.65
2023-03-01T02:12:47.996Z,-3.40
2023-03-01T02:15:51.492Z,-3.73
2023-03-01T02:18:55.260Z,-3.32
2023-03-01T02:22:07.264Z,-3.68
2023-03-01T02:25:28.074Z,-3.74
2023-03-01T02:28:37.699Z,-3.87
2023-03-01T02:31:43.691Z,-3.55
2023-03-01T02:34:48.899Z,-4.00
2023-03-01T02:37:52.564Z,-3.31
2023-03-01T02:40:58.921Z,-3.68
2023-03-01T02:44:04.038Z,-3.79
2023-03-01T02:47:07.408Z,-3.37
2023-03-01T02:50:24.840Z,-3.70
2023-03-01T02:53:40.128Z,-2.83
2023-03-01T02:56:44.922Z,-3.56
2023-03-01T02:59:51.995Z,-3.39
2023-03-01T03:02:57.857Z,-3.93
2023-03-01T03:06:01.449Z,-4.02
2023-03-01T03:09:09.054Z,-4.08
2023-03-01T03:12:12.253Z,-4.25
2023-03-01T03:15:17.406Z,-4.25
2023-03-01T03:18:21.078Z,-4.27
2023-03-01T03:21:24.233Z,-4.25
2023-03-01T03:24:28.290Z,-4.14
2023-03-01T03:27:32.902Z,-4.00
2023-03-01T03:30:40.108Z,-4.44
2023-03-01T03:33:43.430Z,-4.44
2023-03-01T03:36:47.313Z,-4.50
2023-03-01T03:39:50.524Z,-4.00
2023-03-01T03:42:53.795Z,-3.72
2023-03-01T03:45:59.185Z,-3.80
2023-03-01T03:49:02.359Z,-3.37
2023-03-01T03:52:05.783Z,-3.56
2023-03-01T03:55:11.801Z,-3.44
2023-03-01T03:58:15.069Z,-3.19
2023-03-01T04:01:19.718Z,-3.21
2023-03-01T04:04:22.984Z,-3.18
2023-03-01T04:07:26.127Z,-3.17
2023-03-01T04:10:31.233Z,-3.09
2023-03-01T04:13:34.369Z,-3.00
2023-03-01T04:16:38.928Z,-3.13
2023-03-01T04:19:44.916Z,-3.28
2023-03-01T04:22:48.172Z,-3.11
2023-03-01T04:25:55.515Z,-3.13
2023-03-01T04:28:58.753Z,-3.42
2023-03-01T04:34:28.428Z,-3.06
2023-03-01T04:37:31.845Z,-2.86
2023-03-01T04:40:35.948Z,-3.15
2023-03-01T04:43:40.004Z,-3.04
2023-03-01T04:46:43.112Z,-2.99
2023-03-01T04:49:48.140Z,-2.92
2023-03-01T04:52:51.570Z,-3.04
2023-03-01T04:55:56.587Z,-2.97
2023-03-01T04:59:01.353Z,-3.11
2023-03-01T05:02:04.481Z,-3.08
2023-03-01T05:05:09.357Z,-3.13
2023-03-01T05:08:18.380Z,-3.08
2023-03-01T05:11:21.592Z,-3.08
2023-03-01T05:14:24.726Z,-3.10
2023-03-01T05:17:28.137Z,-3.11
2023-03-01T05:20:32.669Z,-3.04
2023-03-01T05:23:37.016Z,-2.94
2023-03-01T05:26:41.467Z,-3.04
2023-03-01T05:29:44.765Z,-3.12
2023-03-01T05:32:49.709Z,-3.21
2023-03-01T05:35:54.732Z,-3.15
2023-03-01T05:38:57.923Z,-3.02
2023-03-01T05:42:03.104Z,-3.13
2023-03-01T05:45:10.560Z,-3.12
2023-03-01T05:48:14.968Z,-3.30
2023-03-01T05:51:19.596Z,-3.27
2023-03-01T05:54:23.697Z,-3.19
2023-03-01T05:57:26.912Z,-3.07
2023-03-01T06:00:31.359Z,-3.21
2023-03-01T06:03:34.494Z,-3.22
2023-03-01T06:06:39.642Z,-2.98
2023-03-01T06:09:42.760Z,-2.94
2023-03-01T06:12:46.223Z,-3.35
2023-03-01T06:15:49.425Z,-3.10
2023-03-01T06:18:52.577Z,-3.08
2023-03-01T06:21:57.040Z,-3.12
2023-03-01T06:25:00.201Z,-2.99
2023-03-01T06:28:03.486Z,-3.06
2023-03-01T06:31:09.692Z,-3.01
2023-03-01T06:34:14.505Z,-2.94
2023-03-01T06:37:19.517Z,-2.86
2023-03-01T06:40:22.869Z,-2.99
2023-03-01T06:43:26.693Z,-2.64
2023-03-01T06:46:30.252Z,-2.73
2023-03-01T06:49:33.637Z,-2.79
2023-03-01T06:52:38.124Z,-2.76
2023-03-01T06:55:41.556Z,-2.56
2023-03-01T06:58:45.005Z,-2.76
2023-03-01T07:01:48.144Z,-2.66
2023-03-01T07:04:51.632Z,-2.54
2023-03-01T07:07:57.342Z,-2.61
2023-03-01T07:11:02.885Z,-2.76
2023-03-01T07:14:06.781Z,-2.55
2023-03-01T07:17:09.895Z,-2.23
2023-03-01T07:20:13.950Z,-2.40
2023-03-01T07:23:20.707Z,-2.11
2023-03-01T07:26:26.146Z,-2.23
2023-03-01T07:29:30.291Z,-2.07
2023-03-01T07:32:33.545Z,-1.94
2023-03-01T07:35:36.951Z,-1.93
2023-03-01T07:38:41.512Z,-1.98
2023-03-01T07:41:44.669Z,-1.58
2023-03-01T07:44:47.814Z,-1.46
2023-03-01T07:47:52.520Z,-1.51
2023-03-01T07:50:55.664Z,-1.43
2023-03-01T07:54:00.361Z,-0.99
2023-03-01T07:57:03.496Z,-0.70
2023-03-01T08:00:08.425Z,-0.34
2023-03-01T08:06:20.793Z,-0.15
2023-03-01T08:09:25.312Z,-0.08
2023-03-01T08:12:29.080Z,0.03
2023-03-01T08:15:32.225Z,0.16
2023-03-01T08:18:35.559Z,0.24
2023-03-01T08:21:41.436Z,0.08
2023-03-01T08:24:46.023Z,0.15
2023-03-01T08:27:49.176Z,0.72
2023-03-01T08:30:52.831Z,0.61
2023-03-01T08:33:58.137Z,0.89
2023-03-01T08:37:01.541Z,0.61
2023-03-01T08:40:11.073Z,0.95
2023-03-01T08:43:14.223Z,1.29
2023-03-01T08:46:17.870Z,1.03
2023-03-01T08:49:22.612Z,1.12
2023-03-01T08:52:26.063Z,1.09
2023-03-01T08:55:30.548Z,1.43
2023-03-01T08:58:34.057Z,1.50
2023-03-01T09:01:38.013Z,1.73
2023-03-01T09:04:41.617Z,1.38
2023-03-01T09:07:45.026Z,1.57
2023-03-01T09:10:49.525Z,1.48
2023-03-01T09:13:52.888Z,1.79
2023-03-01T09:16:56.218Z,1.81
2023-03-01T09:20:00.577Z,1.72
2023-03-01T09:23:03.882Z,2.11
2023-03-01T09:26:09.855Z,2.39
2023-03-01T09:29:13.076Z,2.29
2023-03-01T09:32:16.242Z,2.29
2023-03-01T09:35:21.076Z,2.35
2023-03-01T09:38:25.915Z,2.72
2023-03-01T09:41:46.676Z,2.91
2023-03-01T09:44:55.406Z,2.74
2023-03-01T09:47:58.993Z,2.74
2023-03-01T09:51:09.445Z,2.99
2023-03-01T09:54:13.129Z,3.18
2023-03-01T09:57:24.183Z,3.09
2023-03-01T10:00:35.582Z,2.94
2023-03-01T10:03:45.036Z,2.64
2023-03-01T10:06:54.467Z,3.23
2023-03-01T10:09:57.916Z,2.95
2023-03-01T10:13:10.719Z,3.64
2023-03-01T10:16:18.198Z,3.28
2023-03-01T10:19:26.356Z,3.18
2023-03-01T10:22:32.400Z,2.42
2023-03-01T10:25:46.597Z,3.44
2023-03-01T10:28:59.980Z,3.53
2023-03-01T10:34:32.355Z,3.49
2023-03-01T10:37:35.760Z,3.83
2023-03-01T10:40:52.923Z,3.53
2023-03-01T10:43:58.728Z,3.73
2023-03-01T10:47:03.034Z,3.92
2023-03-01T10:50:19.966Z,3.68
2023-03-01T10:53:30.080Z,3.95
2023-03-01T10:56:48.495Z,4.40
2023-03-01T11:00:05.366Z,4.36
2023-03-01T11:03:14.883Z,4.70
2023-03-01T11:06:24.430Z,4.29
2023-03-01T11:09:28.834Z,4.52
2023-03-01T11:12:33.590Z,3.96
2023-03-01T11:15:37.321Z,4.50
2023-03-01T11:18:48.253Z,4.56
2023-03-01T11:22:01.698Z,4.31
2023-03-01T11:25:10.351Z,4.45
2023-03-01T11:28:17.652Z,4.86
2023-03-01T11:31:21.659Z,4.71
2023-03-01T11:34:39.393Z,4.54
2023-03-01T11:38:01.179Z,4.97
2023-03-01T11:41:09.824Z,5.11
2023-03-01T11:44:19.872Z,5.28
2023-03-01T11:47:42.027Z,5.27
2023-03-01T11:50:49.379Z,5.27
2023-03-01T11:54:16.091Z,5.20
2023-03-01T11:57:43.944Z,4.81
2023-03-01T12:01:18.901Z,5.20
2023-03-01T12:04:54.343Z,5.47
2023-03-01T12:08:09.194Z,5.36
2023-03-01T12:11:30.638Z,5.57
2023-03-01T12:14:58.398Z,5.28
2023-03-01T12:18:27.794Z,5.56
2023-03-01T12:21:44.269Z,5.84
2023-03-01T12:25:27.814Z,5.46
2023-03-01T12:28:48.031Z,5.45
2023-03-01T12:32:17.422Z,5.90
2023-03-01T12:35:56.162Z,6.05
2023-03-01T12:39:16.159Z,6.17
2023-03-01T12:42:32.872Z,6.13
2023-03-01T12:45:58.980Z,6.23
2023-03-01T12:49:10.160Z,6.17
2023-03-01T12:52:17.075Z,5.98
2023-03-01T12:55:30.218Z,6.29
2023-03-01T12:58:48.709Z,6.32
2023-03-01T13:02:05.926Z,6.10
2023-03-01T13:05:25.195Z,6.23
2023-03-01T13:08:34.041Z,6.06
2023-03-01T13:11:37.242Z,5.97
2023-03-01T13:14:48.484Z,6.40
2023-03-01T13:17:55.090Z,6.18
2023-03-01T13:20:59.866Z,6.28
2023-03-01T13:24:03.232Z,6.42
2023-03-01T13:27:25.940Z,6.56
2023-03-01T13:30:44.919Z,6.74
2023-03-01T13:33:50.758Z,6.87
2023-03-01T13:36:53.927Z,6.84
2023-03-01T13:39:59.785Z,6.77
2023-03-01T13:43:29.826Z,6.90
2023-03-01T13:46:35.525Z,6.67
2023-03-01T13:49:48.278Z,7.05
2023-03-01T13:52:55.264Z,6.80
2023-03-01T13:56:03.385Z,6.70
2023-03-01T13:59:14.659Z,6.48
2023-03-01T14:02:18.812Z,6.82
2023-03-01T14:05:23.695Z,6.66
2023-03-01T14:08:29.330Z,6.80
2023-03-01T14:12:00.454Z,6.95
2023-03-01T14:15:06.544Z,6.80
2023-03-01T14:18:16.847Z,7.18
2023-03-01T14:21:21.411Z,6.92
2023-03-01T14:24:25.627Z,7.18
2023-03-01T14:27:31.973Z,6.90
2023-03-01T14:30:39.603Z,6.83
2023-03-01T14:33:43.090Z,6.80
2023-03-01T14:36:47.877Z,7.06
2023-03-01T14:39:52.195Z,7.27
2023-03-01T14:42:57.204Z,7.13
2023-03-01T14:46:00.533Z,6.90
2023-03-01T14:49:06.104Z,6.94
2023-03-01T14:52:24.018Z,7.11
2023-03-01T14:55:30.824Z,6.90
2023-03-01T14:58:35.176Z,6.93
2023-03-01T15:01:38.807Z,6.89
2023-03-01T15:04:43.766Z,6.84
2023-03-01T15:07:50.085Z,6.83
2023-03-01T15:11:03.378Z,6.89
2023-03-01T15:14:28.412Z,6.84
2023-03-01T15:17:36.867Z,6.80
2023-03-01T15:20:40.971Z,6.96
2023-03-01T15:23:54.069Z,6.79
2023-03-01T15:27:02.693Z,6.75
2023-03-01T15:30:06.974Z,6.76
2023-03-01T15:33:22.766Z,6.62
2023-03-01T15:36:36.069Z,6.67
2023-03-01T15:39:44.292Z,6.57
2023-03-01T15:42:47.677Z,6.63
2023-03-01T15:45:59.226Z,6.26
2023-03-01T15:49:05.280Z,6.38
2023-03-01T15:52:29.686Z,6.42
2023-03-01T15:55:34.778Z,6.32
2023-03-01T15:58:37.913Z,6.32
2023-03-01T16:01:41.143Z,6.18
2023-03-01T16:04:44.710Z,6.32
2023-03-01T16:07:47.871Z,6.07
2023-03-01T16:10:54.527Z,6.31
2023-03-01T16:13:57.897Z,6.26
2023-03-01T16:17:01.017Z,6.15
2023-03-01T16:20:06.547Z,6.07
2023-03-01T16:23:13.106Z,5.99
2023-03-01T16:26:20.351Z,5.94
2023-03-01T16:29:24.553Z,5.85
2023-03-01T16:34:27.284Z,5.64
2023-03-01T16:37:33.742Z,5.61
2023-03-01T16:40:37.127Z,5.41
2023-03-01T16:43:40.532Z,5.34
2023-03-01T16:46:44.732Z,5.25
2023-03-01T16:49:53.204Z,5.42
2023-03-01T16:52:56.529Z,4.62
2023-03-01T16:56:00.845Z,5.26
2023-03-01T16:59:05.784Z,5.14
2023-03-01T17:02:13.461Z,5.12
2023-03-01T17:05:18.416Z,5.04
2023-03-01T17:08:21.615Z,5.08
2023-03-01T17:11:24.807Z,5.05
2023-03-01T17:14:27.945Z,4.83
2023-03-01T17:17:31.185Z,4.78
2023-03-01T17:20:35.745Z,4.71
2023-03-01T17:23:41.274Z,4.67
2023-03-01T17:26:44.465Z,4.68
2023-03-01T17:29:47.810Z,4.58
2023-03-01T17:32:53.125Z,4.65
2023-03-01T17:35:58.295Z,4.43
2023-03-01T17:39:01.566Z,4.49
2023-03-01T17:42:06.602Z,4.47
2023-03-01T17:45:10.422Z,4.21
2023-03-01T17:48:13.803Z,4.29
2023-03-01T17:51:18.878Z,4.13
2023-03-01T17:54:22.061Z,4.24
2023-03-01T17:57:25.257Z,4.14
2023-03-01T18:00:30.335Z,3.85
2023-03-01T18:03:33.528Z,4.15
2023-03-01T18:06:38.556Z,3.98
2023-03-01T18:09:41.705Z,3.88
2023-03-01T18:12:45.151Z,3.77
2023-03-01T18:15:48.665Z,3.74
2023-03-01T18:18:54.711Z,3.50
2023-03-01T18:21:59.396Z,3.51
2023-03-01T18:25:02.541Z,3.73
2023-03-01T18:28:05.901Z,3.58
2023-03-01T18:31:11.647Z,3.68
2023-03-01T18:34:14.875Z,3.52
2023-03-01T18:37:19.432Z,3.34
2023-03-01T18:40:22.676Z,3.42
2023-03-01T18:43:28.773Z,3.29
2023-03-01T18:46:34.213Z,3.29
2023-03-01T18:49:38.532Z,3.28
2023-03-01T18:52:43.060Z,3.40
2023-03-01T18:55:46.176Z,3.29
2023-03-01T18:58:49.474Z,3.29
2023-03-01T19:01:55.621Z,2.64
2023-03-01T19:04:58.856Z,3.14
2023-03-01T19:08:03.448Z,2.93
2023-03-01T19:11:07.608Z,2.98
2023-03-01T19:14:11.343Z,2.86
2023-03-01T19:17:14.682Z,2.97
2023-03-01T19:20:18.487Z,2.94
2023-03-01T19:23:23.080Z,2.87
2023-03-01T19:26:28.542Z,2.82
2023-03-01T19:29:31.705Z,2.86
2023-03-01T19:32:34.926Z,2.77
2023-03-01T19:35:38.310Z,2.68
2023-03-01T19:38:44.157Z,2.53
2023-03-01T19:41:49.868Z,2.53
2023-03-01T19:44:53.258Z,2.55
2023-03-01T19:47:57.195Z,2.48
2023-03-01T19:51:00.462Z,2.40
2023-03-01T19:54:05.756Z,2.43
2023-03-01T19:57:09.183Z,2.21
2023-03-01T20:00:13.600Z,2.31
2023-03-01T20:03:17.826Z,2.33
2023-03-01T20:06:21.676Z,2.13
2023-03-01T20:09:26.247Z,2.31
2023-03-01T20:12:29.411Z,2.18
2023-03-01T20:15:32.907Z,2.30
2023-03-01T20:18:37.038Z,2.12
2023-03-01T20:21:40.296Z,2.07
2023-03-01T20:24:45.054Z,1.97
2023-03-01T20:27:48.322Z,2.05
2023-03-01T20:30:51.536Z,2.17
2023-03-01T20:33:56.333Z,2.00
2023-03-01T20:36:59.521Z,1.93
2023-03-01T20:40:05.540Z,1.87
2023-03-01T20:43:08.870Z,1.80
2023-03-01T20:46:14.910Z,1.67
2023-03-01T20:49:18.195Z,1.46
2023-03-01T20:52:21.290Z,1.63
2023-03-01T20:55:25.974Z,1.46
2023-03-01T20:58:32.631Z,1.58
2023-03-01T21:01:36.354Z,1.43
2023-03-01T21:04:39.616Z,1.74
2023-03-01T21:07:42.827Z,1.67
2023-03-01T21:10:52.338Z,1.60
2023-03-01T21:13:56.861Z,1.39
2023-03-01T21:17:00.221Z,1.31
2023-03-01T21:20:04.499Z,1.29
2023-03-01T21:23:07.645Z,1.28
2023-03-01T21:26:14.265Z,1.31
2023-03-01T21:29:17.510Z,1.42
2023-03-01T21:32:20.862Z,1.34
2023-03-01T21:35:24.615Z,1.30
2023-03-01T21:38:30.886Z,1.37
2023-03-01T21:41:37.725Z,1.28
2023-03-01T21:44:40.885Z,1.33
2023-03-01T21:47:44.186Z,1.36
2023-03-01T21:50:55.993Z,1.34
2023-03-01T21:54:00.964Z,1.34
2023-03-01T21:57:07.512Z,1.40
2023-03-01T22:00:13.020Z,1.28
2023-03-01T22:03:17.191Z,1.08
2023-03-01T22:06:22.935Z,1.27
2023-03-01T22:09:26.662Z,1.14
2023-03-01T22:12:31.166Z,1.20
2023-03-01T22:15:34.357Z,1.06
2023-03-01T22:18:37.640Z,1.16
2023-03-01T22:21:41.441Z,1.32
2023-03-01T22:24:44.670Z,1.13
2023-03-01T22:27:49.266Z,1.08
2023-03-01T22:34:27.323Z,1.06
2023-03-01T22:37:30.539Z,1.27
2023-03-01T22:40:33.706Z,1.09
2023-03-01T22:43:37.325Z,1.25
2023-03-01T22:46:40.469Z,1.09
2023-03-01T22:49:45.213Z,1.07
2023-03-01T22:52:48.415Z,1.43
2023-03-01T22:55:51.548Z,0.95
2023-03-01T22:58:54.669Z,1.13
2023-03-01T23:01:58.162Z,0.98
2023-03-01T23:05:02.680Z,1.12
2023-03-01T23:08:06.104Z,1.14
2023-03-01T23:11:13.448Z,1.03
2023-03-01T23:14:16.717Z,0.95
2023-03-01T23:17:20.196Z,0.93
2023-03-01T23:20:24.714Z,0.82
2023-03-01T23:23:27.878Z,0.77
2023-03-01T23:26:31.637Z,0.97
2023-03-01T23:29:34.958Z,0.79
2023-03-01T23:32:40.391Z,1.08
2023-03-01T23:35:44.923Z,0.80
2023-03-01T23:38:49.462Z,0.68
2023-03-01T23:41:52.673Z,0.58
2023-03-01T23:44:55.796Z,0.69
2023-03-01T23:47:59.007Z,0.75
2023-03-01T23:51:06.398Z,0.67
2023-03-01T23:54:10.610Z,0.78
2023-03-01T23:57:13.716Z,0.87
